Amargosa Valley, Nevada Weather observations

Data are for observation ending at time listed.
 Day   Time    Ave.   Ave.  Ave.  Vector   Max.   Stn.    Total    Solar   Ave.  
  of    of     Air    Rel.  Wind   Wind    Wind   Baro.  Precip.   Rad.    Soil  
Year   Day     Temp.  Hum.  Speed  Dir.    Gust   Pres.                    Temp. 
2015   (PST)    F      %     mph   deg.    mph     mb.     in.     W/m2     F   
------------------------------------------------------------------------------
  61   12:10   47.0    81   12.4   185     18.1   922.4    0.02      72    53.2
  61   12:20   47.0    82   11.5   180     15.9   922.3    0.02     217    53.2
  61   12:30   48.3    81   10.9   170     15.8   922.2    0.00     403    53.3
  61   12:40   48.6    77    6.4   197     12.1   922.2    0.00     213    53.3
  61   12:50   49.5    75    8.9   166     13.5   922.2    0.00     924    53.3
  61   13:00   50.2    73    8.8   156     14.0   922.4    0.00     633    53.4
  61   13:10   51.2    71    9.5   158     14.4   922.4    0.00     945    53.4
  61   13:20   51.9    68    8.7   150     12.9   922.4    0.00     712    53.5
  61   13:30   51.5    64    6.8   181     11.5   922.4    0.00     492    53.5
  61   13:40   52.3    61    5.3   205      9.6   922.4    0.00     766    53.6
  61   13:50   52.5    61    4.6   193      8.3   922.4    0.00     393    53.7
  61   14:00   53.2    57    5.7   197     12.1   922.3    0.00     785    53.8
  61   14:10   53.4    56    6.6   192     13.3   922.3    0.00     460    53.9
  61   14:20   53.5    55    5.2   186      9.3   922.4    0.00     319    54.0
  61   14:30   54.7    53    7.2   162     12.5   922.4    0.00     656    54.2
  61   14:40   54.9    52    5.6   167     12.0   922.5    0.00     647    54.4
  61   14:50   55.1    54    8.0   159     14.3   922.6    0.00     705    54.6
  61   15:00   55.2    54    8.2   167     12.7   922.8    0.00     378    54.8
  61   15:10   54.0    54    8.8   169     12.0   922.8    0.00     169    55.0
  61   15:20   53.7    55    4.0   173      7.6   922.8    0.00     198    55.1
  61   15:30   51.3    67    4.1    28      8.8   922.8    0.00     194    55.3
  61   15:40   52.3    63    4.6    30      9.2   922.7    0.00     410    55.5
  61   15:50   51.8    66    3.7    24      8.8   922.8    0.00     199    55.6
  61   16:00   52.0    66    3.8    20      9.9   922.8    0.00     301    55.8
  61   16:10   51.0    65    6.6    26     11.7   923.0    0.00     108    55.9
  61   16:20   50.5    67    6.3    26     10.0   923.0    0.00      86    56.0
  61   16:30   50.0    68    7.2    30     12.2   923.1    0.00      60    56.0
  61   16:40   49.5    68    6.4    31     10.4   923.1    0.00      36    56.1
  61   16:50   48.8    69    6.7    29     12.5   923.1    0.00      30    56.1
  61   17:00   48.6    68    6.0    31      9.8   923.1    0.00      20    56.2
  61   17:10   48.5    69    3.9    43      8.0   923.3    0.00      14    56.1
  61   17:20   47.8    70    3.6    45      8.9   923.5    0.00       9    56.1
  61   17:30   47.9    69    2.9    45      5.6   923.6    0.00       6    56.1
  61   17:40   47.6    71    3.2    74      6.5   923.7    0.00       4    56.0
  61   17:50   47.5    71    4.3    85      6.6   923.7    0.00       2    56.0
  61   18:00   46.8    75    3.4    78      6.1   923.8    0.00       0    55.9
  61   18:10   46.0    76    1.8    50      4.5   924.0    0.00       0    55.9
  61   18:20   44.7    76    2.7    40      5.0   924.1    0.00       0    55.8
  61   18:30   43.9    78    3.0    34      4.9   924.2    0.00       0    55.8
  61   18:40   43.3    79    2.7    39      5.0   924.4    0.00       0    55.7
  61   18:50   43.4    79    1.7    40      4.4   924.5    0.00       0    55.6
  61   19:00   43.0    80    2.4    34      4.2   924.7    0.00       1    55.5
  61   19:10   42.7    80    1.7    57      3.7   924.8    0.00       0    55.4
  61   19:20   42.8    81    0.9   196      3.4   925.0    0.00       1    55.3
  61   19:30   44.4    79    2.7   111      6.1   925.0    0.00       0    55.2
  61   19:40   43.4    80    0.7   300      3.3   925.1    0.00       0    55.1
  61   19:50   42.4    83    0.3   348      2.6   925.2    0.00       0    55.0
  61   20:00   42.6    82    0.8   336      3.4   925.3    0.00       0    54.9
  61   20:10   42.2    83    1.5   313      3.8   925.2    0.00       0    54.8
  61   20:20   43.0    82    1.4    82      4.5   925.4    0.00       0    54.7
  61   20:30   43.7    79    0.4    66      2.6   925.5    0.00       0    54.6
  61   20:40   43.2    81    0.0    44      0.7   925.6    0.00       0    54.5
  61   20:50   43.0    82    1.6    87      3.7   925.8    0.00       0    54.4
  61   21:00   43.6    80    1.9    73      3.8   925.8    0.00       0    54.3
  61   21:10   42.5    82    0.7   353      2.6   926.0    0.00       0    54.2
  61   21:20   41.3    85    0.3   316      2.8   926.1    0.00       0    54.1
  61   21:30   40.9    86    0.2    17      1.2   926.0    0.00       0    54.0
  61   21:40   41.2    84    1.4    27      2.9   926.0    0.00       0    53.9
  61   21:50   41.3    83    2.3    25      4.2   926.1    0.00       0    53.8
  61   22:00   41.4    82    3.3    30      5.6   926.2    0.00       0    53.7
  61   22:10   41.3    82    2.8    33      4.7   926.3    0.00       0    53.6
  61   22:20   41.2    82    2.5    33      4.4   926.4    0.00       0    53.5
  61   22:30   41.3    81    2.6    32      4.2   926.4    0.00       0    53.4
  61   22:40   41.2    81    2.1    29      4.0   926.4    0.00       0    53.3
  61   22:50   40.8    81    1.8    27      3.4   926.4    0.00       0    53.2
  61   23:00   40.4    82    1.5    24      3.6   926.4    0.00       0    53.1
  61   23:10   40.1    83    0.9    17      2.9   926.4    0.00       0    53.0
  61   23:20   39.8    84    2.0    22      4.7   926.4    0.00       0    52.9
  61   23:30   40.1    83    2.3    27      4.4   926.4    0.00       0    52.8
  61   23:40   39.5    84    1.6    23      3.7   926.4    0.00       0    52.7
  61   23:50   39.3    84    1.2    17      3.1   926.5    0.00       0    52.6
  62    0:00   39.1    85    1.1   348      4.2   926.5    0.00       0    52.6
  62    0:10   38.6    86    2.4   315      6.3   926.4    0.00       0    52.5
  62    0:20   39.0    85    2.0   320      4.5   926.5    0.00       0    52.4
  62    0:30   39.1    85    1.2   315      3.8   926.5    0.00       0    52.3
  62    0:40   38.8    85    0.5   326      2.0   926.5    0.00       0    52.2
  62    0:50   38.5    86    0.1   339      0.9   926.5    0.00       0    52.1
  62    1:00   38.2    86    0.1   339      0.7   926.5    0.00       0    52.0
  62    1:10   37.7    87    0.1   358      1.5   926.4    0.00       0    51.9
  62    1:20   37.5    88    0.3    23      2.0   926.5    0.00       0    51.8
  62    1:30   37.2    88    0.0     0      0.0   926.6    0.00       0    51.7
  62    1:40   36.5    89    0.4    21      4.4   926.6    0.00       0    51.6
  62    1:50   36.5    90    2.1    36      3.4   926.6    0.00       0    51.5
  62    2:00   37.7    90    1.2    53      3.1   926.4    0.00       0    51.4
  62    2:10   36.7    88    0.0    62      0.8   926.4    0.00       0    51.3
  62    2:20   36.3    90    0.0     0      0.0   926.4    0.00       0    51.2
  62    2:30   36.2    90    0.0     0      0.0   926.4    0.00       0    51.1
  62    2:40   35.7    90    0.0    15      0.5   926.4    0.00       0    51.0
  62    2:50   35.7    90    0.1    13      0.9   926.3    0.00       0    50.9
  62    3:00   35.6    90    0.0    13      0.5   926.1    0.00       0    50.9
  62    3:10   35.3    90    0.1    13      1.1   926.1    0.00       0    50.8
  62    3:20   35.5    90    0.0    13      0.9   925.9    0.00       0    50.7
  62    3:30   35.6    90    0.1    11      0.7   925.9    0.00       0    50.6
  62    3:40   35.5    90    0.0    12      0.6   925.8    0.00       0    50.5
  62    3:50   35.7    90    0.1    22      1.0   925.7    0.00       0    50.4
  62    4:00   35.2    90    1.2   310      3.1   925.7    0.00       0    50.3
  62    4:10   34.6    90    1.2   322      2.8   925.9    0.00       0    50.3
  62    4:20   34.4    91    1.1   326      2.6   926.0    0.00       0    50.2
  62    4:30   34.2    91    0.7   324      1.7   926.2    0.00       0    50.1
  62    4:40   35.5    90    1.1     9      3.6   926.2    0.00       0    50.0
  62    4:50   36.8    86    0.2    20      2.3   926.1    0.00       0    49.9
  62    5:00   36.3    86    0.1    15      0.9   926.1    0.00       0    49.8
  62    5:10   36.0    87    0.0     8      0.5   926.1    0.00       0    49.7
  62    5:20   35.8    87    0.1     8      0.9   926.0    0.00       0    49.7
  62    5:30   35.5    87    0.0     0      0.0   926.0    0.00       0    49.6
  62    5:40   35.0    88    0.0     8      0.4   926.0    0.00       0    49.5
  62    5:50   34.8    89    0.5   325      2.9   926.0    0.00       0    49.4
  62    6:00   34.0    90    1.2   182      5.0   926.0    0.00       0    49.3
  62    6:10   33.8    91    0.1   190      0.7   926.0    0.00       1    49.3
  62    6:20   33.8    91    0.0     0      0.0   926.1    0.00       6    49.2
  62    6:30   33.7    91    0.0   326      0.4   926.1    0.00      18    49.1
  62    6:40   33.8    90    1.1    22      3.1   926.1    0.00      43    49.0
  62    6:50   34.3    90    1.0    21      2.3   926.1    0.00      70    48.9
  62    7:00   35.4    89    0.7     7      1.9   926.3    0.00     105    48.8
  62    7:10   37.0    86    0.8    12      2.5   926.5    0.00     140    48.7
  62    7:20   37.9    84    1.6    26      3.1   926.6    0.00     173    48.6
  62    7:30   39.3    82    1.6    26      2.9   926.7    0.00     205    48.5
  62    7:40   40.5    80    1.8    35      2.9   926.8    0.00     240    48.5
  62    7:50   41.7    78    1.4    36      2.9   927.0    0.00     273    48.4
  62    8:00   42.9    74    1.1    29      2.2   927.2    0.00     302    48.3
  62    8:10   44.4    71    0.9    24      1.8   927.3    0.00     334    48.3
  62    8:20   45.6    68    1.1   359      2.4   927.5    0.00     363    48.2
  62    8:30   46.6    66    1.3   340      3.6   927.7    0.00     394    48.2
  62    8:40   46.1    68    2.5   310      5.6   927.8    0.00     423    48.1
  62    8:50   46.2    69    1.7   312      3.7   927.9    0.00     453    48.1
  62    9:00   46.9    68    1.1   330      3.3   928.0    0.00     482    48.1
  62    9:10   47.5    66    1.2   354      3.4   928.0    0.00     515    48.1
  62    9:20   48.7    64    0.7    22      2.1   928.1    0.00     544    48.1
  62    9:30   48.9    63    1.6   337      3.3   928.2    0.00     218    48.1
  62    9:40   49.8    60    1.0    16      2.4   928.2    0.00     291    48.2
  62    9:50   50.3    59    1.2   204      3.4   928.2    0.00     257    48.3
  62   10:00   50.1    60    1.8   273      3.7   928.3    0.00     287    48.3
  62   10:10   49.4    61    1.3   230      3.6   928.3    0.00     326    48.4
  62   10:20   50.8    58    0.8   206      2.9   928.2    0.00     704    48.5
  62   10:30   51.8    58    1.6   154      4.1   928.2    0.00     739    48.7
  62   10:40   52.1    57    2.2   223      5.0   928.1    0.00     775    48.8
  62   10:50   52.9    58    2.2   180      5.2   928.1    0.00     767    49.0
  62   11:00   53.2    57    2.5   280      6.1   928.0    0.00     698    49.2
  62   11:10   52.8    58    2.1   242      5.9   927.9    0.00     709    49.4
  62   11:20   53.3    56    2.5   244      6.6   927.8    0.00     569    49.5
  62   11:30   53.0    55    3.2   289      7.9   927.6    0.00     749    49.7
  62   11:40   53.7    54    3.2   244      6.9   927.4    0.00     739    49.9
  62   11:50   54.1    53    2.6   252      6.6   927.3    0.00     747    50.1
  62   12:00   54.2    53    2.7   236      7.1   927.2    0.00     769    50.3

Return to Amargosa Valley, Nevada graphs page.


Western Regional Climate Center,wrcc@dri.edu